Terminal Aerodrome Forecast
Issued by NWS

Home | Current Version | Previous Version | Graphics & Text | Print | Product List | Glossary On
Versions: 1 2 3 4 5 6 7 8 9 10 11 12 13 14 15 16 17 18 19
000
FTUS43 KICT 172337
TAFCNU
TAF
KCNU 172337Z 1800/1824 05006KT P6SM VCSH SCT035 OVC050
     FM180100 10007KT 3SM -SNPL BKN012 OVC035
     FM180500 07008KT 2SM -FZDZSN SCT004 OVC009
     FM181700 03008KT 4SM BR OVC009=

USA.gov is the U.S. government's official web portal to all federal, state and local government web resources and services.